sensor_id;sensor_type;location;lat;lon;timestamp;pressure;altitude;pressure_sealevel;temperature;humidity
60725;BME280;59881;36.722;-4.462;2023-04-12T00:01:27;100996.03;;;17.46;47.69
60725;BME280;59881;36.722;-4.462;2023-04-12T00:03:53;100962.81;;;17.30;46.73
60725;BME280;59881;36.722;-4.462;2023-04-12T00:06:19;100984.97;;;17.41;47.10
60725;BME280;59881;36.722;-4.462;2023-04-12T00:08:50;100993.38;;;17.36;47.97
60725;BME280;59881;36.722;-4.462;2023-04-12T00:11:16;100879.19;;;16.53;48.89
60725;BME280;59881;36.722;-4.462;2023-04-12T00:13:41;100960.41;;;16.98;49.15
60725;BME280;59881;36.722;-4.462;2023-04-12T00:16:08;100944.50;;;16.77;50.06
60725;BME280;59881;36.722;-4.462;2023-04-12T00:18:34;100992.91;;;17.02;50.83
60725;BME280;59881;36.722;-4.462;2023-04-12T00:20:59;100999.22;;;17.01;51.33
60725;BME280;59881;36.722;-4.462;2023-04-12T00:23:25;100994.31;;;16.96;52.30
60725;BME280;59881;36.722;-4.462;2023-04-12T00:25:50;100990.34;;;16.90;53.25
60725;BME280;59881;36.722;-4.462;2023-04-12T00:28:16;100977.03;;;16.81;53.95
60725;BME280;59881;36.722;-4.462;2023-04-12T00:30:41;100995.38;;;16.93;54.56
60725;BME280;59881;36.722;-4.462;2023-04-12T00:33:07;100979.00;;;16.88;54.53
60725;BME280;59881;36.722;-4.462;2023-04-12T00:35:33;100860.31;;;16.16;54.62
60725;BME280;59881;36.722;-4.462;2023-04-12T00:37:58;100982.78;;;16.95;55.00
60725;BME280;59881;36.722;-4.462;2023-04-12T00:40:27;100814.91;;;15.98;54.79
60725;BME280;59881;36.722;-4.462;2023-04-12T00:42:52;100972.31;;;17.04;54.84
60725;BME280;59881;36.722;-4.462;2023-04-12T00:45:18;100979.63;;;17.11;54.42
60725;BME280;59881;36.722;-4.462;2023-04-12T00:47:43;100975.69;;;17.15;54.07
60725;BME280;59881;36.722;-4.462;2023-04-12T00:50:09;100938.41;;;16.96;53.93
60725;BME280;59881;36.722;-4.462;2023-04-12T00:52:35;100963.25;;;17.16;53.64
60725;BME280;59881;36.722;-4.462;2023-04-12T00:55:06;100917.91;;;16.87;53.26
60725;BME280;59881;36.722;-4.462;2023-04-12T00:57:34;100804.66;;;16.14;53.26
60725;BME280;59881;36.722;-4.462;2023-04-12T01:00:05;100962.50;;;17.04;53.63
60725;BME280;59881;36.722;-4.462;2023-04-12T01:02:33;100848.72;;;16.27;53.85
60725;BME280;59881;36.722;-4.462;2023-04-12T01:04:59;100953.94;;;16.91;54.32
60725;BME280;59881;36.722;-4.462;2023-04-12T01:07:39;100958.41;;;16.81;54.81
60725;BME280;59881;36.722;-4.462;2023-04-12T01:13:00;100954.41;;;16.65;55.44
60725;BME280;59881;36.722;-4.462;2023-04-12T01:15:31;100876.34;;;16.05;55.35
60725;BME280;59881;36.722;-4.462;2023-04-12T01:18:08;100953.00;;;16.61;55.69
60725;BME280;59881;36.722;-4.462;2023-04-12T01:20:42;100947.25;;;16.56;55.89
60725;BME280;59881;36.722;-4.462;2023-04-12T01:29:11;100725.72;;;15.34;55.93
60725;BME280;59881;36.722;-4.462;2023-04-12T01:31:50;100933.38;;;16.62;56.15
60725;BME280;59881;36.722;-4.462;2023-04-12T01:34:16;100932.53;;;16.62;56.38
60725;BME280;59881;36.722;-4.462;2023-04-12T01:36:44;100783.41;;;15.74;56.55
60725;BME280;59881;36.722;-4.462;2023-04-12T01:39:11;100846.47;;;16.12;56.81
60725;BME280;59881;36.722;-4.462;2023-04-12T01:41:40;100916.81;;;16.49;57.23
60725;BME280;59881;36.722;-4.462;2023-04-12T01:44:11;100912.06;;;16.43;57.60
60725;BME280;59881;36.722;-4.462;2023-04-12T01:46:37;100906.28;;;16.38;57.80
60725;BME280;59881;36.722;-4.462;2023-04-12T01:49:03;100852.69;;;15.92;58.22
60725;BME280;59881;36.722;-4.462;2023-04-12T01:54:24;100903.00;;;16.24;58.36
60725;BME280;59881;36.722;-4.462;2023-04-12T01:56:59;100885.19;;;16.05;58.52
60725;BME280;59881;36.722;-4.462;2023-04-12T01:59:38;100903.53;;;16.18;58.71
60725;BME280;59881;36.722;-4.462;2023-04-12T02:02:06;100865.97;;;15.92;58.58
60725;BME280;59881;36.722;-4.462;2023-04-12T02:04:36;100844.53;;;15.84;58.50
60725;BME280;59881;36.722;-4.462;2023-04-12T02:07:02;100894.72;;;16.18;58.27
60725;BME280;59881;36.722;-4.462;2023-04-12T02:09:28;100863.47;;;16.00;58.19
60725;BME280;59881;36.722;-4.462;2023-04-12T02:11:54;100891.44;;;16.25;57.64
60725;BME280;59881;36.722;-4.462;2023-04-12T02:14:21;100684.53;;;15.09;56.96
60725;BME280;59881;36.722;-4.462;2023-04-12T02:16:46;100780.59;;;15.76;56.62
60725;BME280;59881;36.722;-4.462;2023-04-12T02:19:12;100678.69;;;15.15;56.55
60725;BME280;59881;36.722;-4.462;2023-04-12T02:21:42;100889.09;;;16.42;56.72
60725;BME280;59881;36.722;-4.462;2023-04-12T02:24:09;100880.28;;;16.41;56.87
60725;BME280;59881;36.722;-4.462;2023-04-12T02:26:35;100857.28;;;16.21;56.45
60725;BME280;59881;36.722;-4.462;2023-04-12T02:29:02;100685.88;;;15.24;56.62
60725;BME280;59881;36.722;-4.462;2023-04-12T02:31:28;100813.16;;;16.08;56.21
60725;BME280;59881;36.722;-4.462;2023-04-12T02:33:55;100874.56;;;16.46;55.72
60725;BME280;59881;36.722;-4.462;2023-04-12T02:36:20;100847.25;;;16.34;55.18
60725;BME280;59881;36.722;-4.462;2023-04-12T02:38:46;100780.06;;;15.82;54.94
60725;BME280;59881;36.722;-4.462;2023-04-12T02:41:19;100874.72;;;16.54;54.70
60725;BME280;59881;36.722;-4.462;2023-04-12T02:43:45;100854.81;;;16.39;54.83
60725;BME280;59881;36.722;-4.462;2023-04-12T02:46:14;100800.38;;;15.92;55.22
60725;BME280;59881;36.722;-4.462;2023-04-12T02:48:40;100700.84;;;15.25;55.31
60725;BME280;59881;36.722;-4.462;2023-04-12T02:51:06;100845.88;;;16.09;55.50
60725;BME280;59881;36.722;-4.462;2023-04-12T02:53:31;100741.59;;;15.45;55.79
60725;BME280;59881;36.722;-4.462;2023-04-12T02:55:57;100813.22;;;15.87;56.09
60725;BME280;59881;36.722;-4.462;2023-04-12T02:58:25;100834.91;;;15.92;55.98
60725;BME280;59881;36.722;-4.462;2023-04-12T03:00:52;100849.06;;;16.03;56.19
60725;BME280;59881;36.722;-4.462;2023-04-12T03:03:17;100767.16;;;15.46;56.13
60725;BME280;59881;36.722;-4.462;2023-04-12T03:05:43;100857.91;;;16.03;56.15
60725;BME280;59881;36.722;-4.462;2023-04-12T03:08:12;100859.00;;;16.01;56.31
60725;BME280;59881;36.722;-4.462;2023-04-12T03:10:38;100824.38;;;15.81;55.99
60725;BME280;59881;36.722;-4.462;2023-04-12T03:13:03;100854.13;;;16.06;55.83
60725;BME280;59881;36.722;-4.462;2023-04-12T03:15:30;100818.97;;;15.92;55.67
60725;BME280;59881;36.722;-4.462;2023-04-12T03:17:55;100853.19;;;16.17;55.61
60725;BME280;59881;36.722;-4.462;2023-04-12T03:20:21;100854.03;;;16.17;55.39
60725;BME280;59881;36.722;-4.462;2023-04-12T03:22:49;100717.22;;;15.40;54.89
60725;BME280;59881;36.722;-4.462;2023-04-12T03:25:16;100846.38;;;16.33;54.34
60725;BME280;59881;36.722;-4.462;2023-04-12T03:27:45;100845.72;;;16.41;54.04
60725;BME280;59881;36.722;-4.462;2023-04-12T03:30:11;100850.44;;;16.38;54.02
60725;BME280;59881;36.722;-4.462;2023-04-12T03:32:38;100868.69;;;16.52;53.97
60725;BME280;59881;36.722;-4.462;2023-04-12T03:35:04;100733.25;;;15.90;53.78
60725;BME280;59881;36.722;-4.462;2023-04-12T03:37:32;100767.16;;;16.18;53.48
60725;BME280;59881;36.722;-4.462;2023-04-12T03:39:58;100822.06;;;16.48;53.49
60725;BME280;59881;36.722;-4.462;2023-04-12T03:42:23;100838.50;;;16.72;53.27
60725;BME280;59881;36.722;-4.462;2023-04-12T03:44:49;100688.91;;;15.81;53.10
60725;BME280;59881;36.722;-4.462;2023-04-12T03:47:16;100827.56;;;16.66;53.30
60725;BME280;59881;36.722;-4.462;2023-04-12T03:49:42;100844.63;;;16.73;53.49
60725;BME280;59881;36.722;-4.462;2023-04-12T03:52:08;100839.06;;;16.76;53.60
60725;BME280;59881;36.722;-4.462;2023-04-12T03:54:34;100840.06;;;16.85;53.60
60725;BME280;59881;36.722;-4.462;2023-04-12T03:56:59;100813.41;;;16.75;53.33
60725;BME280;59881;36.722;-4.462;2023-04-12T03:59:29;100841.31;;;17.00;53.11
60725;BME280;59881;36.722;-4.462;2023-04-12T04:01:55;100776.31;;;16.64;52.71
60725;BME280;59881;36.722;-4.462;2023-04-12T04:04:24;100843.97;;;17.20;52.28
60725;BME280;59881;36.722;-4.462;2023-04-12T04:06:50;100685.75;;;16.26;52.22
60725;BME280;59881;36.722;-4.462;2023-04-12T04:09:16;100691.34;;;16.23;52.19
60725;BME280;59881;36.722;-4.462;2023-04-12T04:11:42;100852.53;;;17.13;52.37
60725;BME280;59881;36.722;-4.462;2023-04-12T04:14:07;100847.63;;;17.09;52.22
60725;BME280;59881;36.722;-4.462;2023-04-12T04:16:33;100850.00;;;17.02;52.31
60725;BME280;59881;36.722;-4.462;2023-04-12T04:18:59;100874.66;;;16.94;51.97
60725;BME280;59881;36.722;-4.462;2023-04-12T04:21:25;100848.63;;;16.98;52.03
60725;BME280;59881;36.722;-4.462;2023-04-12T04:23:51;100855.63;;;16.99;52.66
60725;BME280;59881;36.722;-4.462;2023-04-12T04:26:17;100735.00;;;16.30;52.68
60725;BME280;59881;36.722;-4.462;2023-04-12T04:28:43;100857.03;;;17.03;53.00
60725;BME280;59881;36.722;-4.462;2023-04-12T04:31:12;100855.06;;;17.05;53.01
60725;BME280;59881;36.722;-4.462;2023-04-12T04:33:40;100858.00;;;17.12;52.91
60725;BME280;59881;36.722;-4.462;2023-04-12T04:36:06;100830.53;;;17.02;52.90
60725;BME280;59881;36.722;-4.462;2023-04-12T04:38:33;100728.44;;;16.44;52.59
60725;BME280;59881;36.722;-4.462;2023-04-12T04:41:00;100854.78;;;17.18;52.66
60725;BME280;59881;36.722;-4.462;2023-04-12T04:43:30;100848.59;;;17.17;52.60
60725;BME280;59881;36.722;-4.462;2023-04-12T04:45:56;100620.69;;;15.82;52.69
60725;BME280;59881;36.722;-4.462;2023-04-12T04:48:22;100891.19;;;17.17;52.86
60725;BME280;59881;36.722;-4.462;2023-04-12T04:50:48;100751.41;;;16.55;52.94
60725;BME280;59881;36.722;-4.462;2023-04-12T04:53:17;100708.56;;;16.19;52.69
60725;BME280;59881;36.722;-4.462;2023-04-12T04:55:43;100704.22;;;16.28;52.90
60725;BME280;59881;36.722;-4.462;2023-04-12T04:58:09;100746.78;;;16.47;52.92
60725;BME280;59881;36.722;-4.462;2023-04-12T05:00:34;100851.72;;;17.23;53.06
60725;BME280;59881;36.722;-4.462;2023-04-12T05:03:00;100876.38;;;17.25;53.25
60725;BME280;59881;36.722;-4.462;2023-04-12T05:05:29;100865.28;;;17.29;53.21
60725;BME280;59881;36.722;-4.462;2023-04-12T05:07:55;100863.03;;;17.34;53.19
60725;BME280;59881;36.722;-4.462;2023-04-12T05:10:21;100852.94;;;17.38;53.16
60725;BME280;59881;36.722;-4.462;2023-04-12T05:12:47;100846.94;;;17.36;53.25
60725;BME280;59881;36.722;-4.462;2023-04-12T05:15:13;100854.91;;;17.36;53.23
60725;BME280;59881;36.722;-4.462;2023-04-12T05:17:38;100862.50;;;17.21;53.22
60725;BME280;59881;36.722;-4.462;2023-04-12T05:20:05;100817.34;;;17.20;53.05
60725;BME280;59881;36.722;-4.462;2023-04-12T05:22:35;100844.97;;;17.38;53.02
60725;BME280;59881;36.722;-4.462;2023-04-12T05:25:00;100846.22;;;17.34;53.14
60725;BME280;59881;36.722;-4.462;2023-04-12T05:27:28;100707.03;;;16.36;53.05
60725;BME280;59881;36.722;-4.462;2023-04-12T05:29:57;100744.69;;;16.61;53.26
60725;BME280;59881;36.722;-4.462;2023-04-12T05:32:23;100836.56;;;17.23;53.33
60725;BME280;59881;36.722;-4.462;2023-04-12T05:34:49;100843.72;;;17.23;53.13
60725;BME280;59881;36.722;-4.462;2023-04-12T05:37:15;100844.69;;;17.22;53.08
60725;BME280;59881;36.722;-4.462;2023-04-12T05:39:41;100757.69;;;16.64;53.00
60725;BME280;59881;36.722;-4.462;2023-04-12T05:42:06;100726.59;;;16.45;53.04
60725;BME280;59881;36.722;-4.462;2023-04-12T05:44:35;100811.50;;;16.87;53.29
60725;BME280;59881;36.722;-4.462;2023-04-12T05:47:04;100705.75;;;16.30;53.40
60725;BME280;59881;36.722;-4.462;2023-04-12T05:49:30;100803.25;;;16.90;53.46
60725;BME280;59881;36.722;-4.462;2023-04-12T05:51:56;100829.41;;;17.04;53.37
60725;BME280;59881;36.722;-4.462;2023-04-12T05:54:22;100827.31;;;17.08;53.24
60725;BME280;59881;36.722;-4.462;2023-04-12T05:56:50;100639.00;;;15.95;53.18
60725;BME280;59881;36.722;-4.462;2023-04-12T05:59:16;100861.59;;;17.40;53.17
60725;BME280;59881;36.722;-4.462;2023-04-12T06:01:44;100713.88;;;16.58;52.91
60725;BME280;59881;36.722;-4.462;2023-04-12T06:04:09;100846.59;;;17.49;52.75
60725;BME280;59881;36.722;-4.462;2023-04-12T06:06:35;100828.38;;;17.54;52.53
60725;BME280;59881;36.722;-4.462;2023-04-12T06:09:01;100770.28;;;17.67;52.30
60725;BME280;59881;36.722;-4.462;2023-04-12T06:11:29;100855.41;;;19.07;50.71
60725;BME280;59881;36.722;-4.462;2023-04-12T06:13:56;100753.97;;;19.33;48.79
60725;BME280;59881;36.722;-4.462;2023-04-12T06:16:21;100831.75;;;20.59;46.95
60725;BME280;59881;36.722;-4.462;2023-04-12T06:18:47;100811.38;;;21.16;45.48
60725;BME280;59881;36.722;-4.462;2023-04-12T06:21:12;100799.91;;;21.71;43.88
60725;BME280;59881;36.722;-4.462;2023-04-12T06:23:38;100694.25;;;21.49;42.37
60725;BME280;59881;36.722;-4.462;2023-04-12T06:26:04;100801.41;;;22.52;41.24
60725;BME280;59881;36.722;-4.462;2023-04-12T06:28:29;100828.28;;;23.22;40.01
60725;BME280;59881;36.722;-4.462;2023-04-12T06:30:55;100742.63;;;23.04;39.04
60725;BME280;59881;36.722;-4.462;2023-04-12T06:33:21;100835.59;;;24.25;38.30
60725;BME280;59881;36.722;-4.462;2023-04-12T06:35:47;100837.16;;;24.92;36.99
60725;BME280;59881;36.722;-4.462;2023-04-12T06:38:13;100838.06;;;25.21;35.95
60725;BME280;59881;36.722;-4.462;2023-04-12T06:40:38;100798.78;;;25.33;35.53
60725;BME280;59881;36.722;-4.462;2023-04-12T06:43:04;100829.69;;;25.94;35.28
60725;BME280;59881;36.722;-4.462;2023-04-12T06:45:30;100749.75;;;25.93;34.25
60725;BME280;59881;36.722;-4.462;2023-04-12T06:47:55;100834.56;;;26.73;33.23
60725;BME280;59881;36.722;-4.462;2023-04-12T06:50:21;100866.41;;;27.18;32.68
60725;BME280;59881;36.722;-4.462;2023-04-12T06:52:47;100856.69;;;27.30;32.08
60725;BME280;59881;36.722;-4.462;2023-04-12T06:55:13;100736.84;;;26.96;31.80
60725;BME280;59881;36.722;-4.462;2023-04-12T06:57:42;100819.75;;;27.89;31.57
60725;BME280;59881;36.722;-4.462;2023-04-12T07:00:11;100764.59;;;27.83;30.84
60725;BME280;59881;36.722;-4.462;2023-04-12T07:02:37;100847.31;;;28.76;30.52
60725;BME280;59881;36.722;-4.462;2023-04-12T07:05:04;100866.03;;;29.41;30.10
60725;BME280;59881;36.722;-4.462;2023-04-12T07:07:30;100661.31;;;28.50;29.04
60725;BME280;59881;36.722;-4.462;2023-04-12T07:09:56;100859.16;;;30.19;28.29
60725;BME280;59881;36.722;-4.462;2023-04-12T07:12:21;100859.28;;;30.61;27.75
60725;BME280;59881;36.722;-4.462;2023-04-12T07:14:47;100737.56;;;30.33;26.96
60725;BME280;59881;36.722;-4.462;2023-04-12T07:17:13;100844.69;;;31.40;26.60
60725;BME280;59881;36.722;-4.462;2023-04-12T07:19:39;100860.19;;;31.98;25.73
60725;BME280;59881;36.722;-4.462;2023-04-12T07:22:06;100801.75;;;31.94;25.25
60725;BME280;59881;36.722;-4.462;2023-04-12T07:24:32;100806.38;;;32.34;24.68
60725;BME280;59881;36.722;-4.462;2023-04-12T07:26:57;100715.38;;;32.35;24.04
60725;BME280;59881;36.722;-4.462;2023-04-12T07:29:23;100860.00;;;33.70;23.67
60725;BME280;59881;36.722;-4.462;2023-04-12T07:31:48;100765.88;;;33.39;23.22
60725;BME280;59881;36.722;-4.462;2023-04-12T07:34:14;100814.53;;;34.03;22.89
60725;BME280;59881;36.722;-4.462;2023-04-12T07:36:40;100862.19;;;34.61;22.43
60725;BME280;59881;36.722;-4.462;2023-04-12T07:39:08;100866.28;;;34.86;22.18
60725;BME280;59881;36.722;-4.462;2023-04-12T07:41:36;100749.59;;;34.42;21.62
60725;BME280;59881;36.722;-4.462;2023-04-12T07:44:02;100851.91;;;35.33;21.31
60725;BME280;59881;36.722;-4.462;2023-04-12T07:46:28;100831.69;;;35.44;20.80
60725;BME280;59881;36.722;-4.462;2023-04-12T07:48:54;100875.91;;;36.11;20.71
60725;BME280;59881;36.722;-4.462;2023-04-12T07:51:19;100864.25;;;36.41;20.89
60725;BME280;59881;36.722;-4.462;2023-04-12T07:53:45;100778.50;;;35.83;20.78
60725;BME280;59881;36.722;-4.462;2023-04-12T07:56:13;100861.72;;;36.19;21.23
60725;BME280;59881;36.722;-4.462;2023-04-12T07:58:38;100858.25;;;36.44;21.23
60725;BME280;59881;36.722;-4.462;2023-04-12T08:01:04;100832.44;;;36.45;21.17
60725;BME280;59881;36.722;-4.462;2023-04-12T08:03:31;100856.38;;;37.32;20.22
60725;BME280;59881;36.722;-4.462;2023-04-12T08:05:57;100853.78;;;37.87;19.22
60725;BME280;59881;36.722;-4.462;2023-04-12T08:08:22;100839.31;;;38.26;18.43
60725;BME280;59881;36.722;-4.462;2023-04-12T08:10:49;100864.88;;;38.76;17.59
60725;BME280;59881;36.722;-4.462;2023-04-12T08:13:15;100830.50;;;38.74;17.02
60725;BME280;59881;36.722;-4.462;2023-04-12T08:15:41;100859.34;;;39.45;16.63
60725;BME280;59881;36.722;-4.462;2023-04-12T08:18:08;100720.72;;;39.20;16.44
60725;BME280;59881;36.722;-4.462;2023-04-12T08:20:34;100801.69;;;39.97;16.16
60725;BME280;59881;36.722;-4.462;2023-04-12T08:23:00;100824.66;;;40.49;15.66
60725;BME280;59881;36.722;-4.462;2023-04-12T08:25:26;100756.56;;;40.44;15.58
60725;BME280;59881;36.722;-4.462;2023-04-12T08:27:52;100835.56;;;41.25;15.38
60725;BME280;59881;36.722;-4.462;2023-04-12T08:30:17;100785.56;;;40.93;15.22
60725;BME280;59881;36.722;-4.462;2023-04-12T08:32:43;100762.13;;;40.91;14.76
60725;BME280;59881;36.722;-4.462;2023-04-12T08:35:09;100852.50;;;41.51;14.85
60725;BME280;59881;36.722;-4.462;2023-04-12T08:37:35;100725.81;;;40.84;14.92
60725;BME280;59881;36.722;-4.462;2023-04-12T08:40:03;100862.72;;;42.20;14.52
60725;BME280;59881;36.722;-4.462;2023-04-12T08:42:32;100859.84;;;42.61;14.30
60725;BME280;59881;36.722;-4.462;2023-04-12T08:44:58;100778.53;;;42.34;13.84
60725;BME280;59881;36.722;-4.462;2023-04-12T08:47:29;100830.13;;;42.75;14.01
60725;BME280;59881;36.722;-4.462;2023-04-12T08:49:54;100781.88;;;42.68;13.97
60725;BME280;59881;36.722;-4.462;2023-04-12T08:52:20;100752.22;;;42.68;13.59
60725;BME280;59881;36.722;-4.462;2023-04-12T08:54:46;100721.97;;;42.49;13.69
60725;BME280;59881;36.722;-4.462;2023-04-12T08:57:12;100683.53;;;42.25;13.84
60725;BME280;59881;36.722;-4.462;2023-04-12T08:59:41;100837.25;;;42.90;13.87
60725;BME280;59881;36.722;-4.462;2023-04-12T09:02:08;100745.00;;;42.58;13.93
60725;BME280;59881;36.722;-4.462;2023-04-12T09:04:33;100687.50;;;42.87;13.50
60725;BME280;59881;36.722;-4.462;2023-04-12T09:07:11;100874.03;;;44.33;12.93
60725;BME280;59881;36.722;-4.462;2023-04-12T09:09:43;100702.56;;;43.87;12.88
60725;BME280;59881;36.722;-4.462;2023-04-12T09:12:09;100873.22;;;44.33;12.69
60725;BME280;59881;36.722;-4.462;2023-04-12T09:14:37;100868.38;;;43.90;13.10
60725;BME280;59881;36.722;-4.462;2023-04-12T09:17:03;100870.63;;;43.70;13.33
60725;BME280;59881;36.722;-4.462;2023-04-12T09:19:33;100865.84;;;44.19;13.57
60725;BME280;59881;36.722;-4.462;2023-04-12T09:21:59;100795.47;;;44.15;13.00
60725;BME280;59881;36.722;-4.462;2023-04-12T09:24:24;100798.91;;;44.47;12.93
60725;BME280;59881;36.722;-4.462;2023-04-12T09:27:00;100876.91;;;45.15;12.71
60725;BME280;59881;36.722;-4.462;2023-04-12T09:29:26;100809.13;;;44.90;12.68
60725;BME280;59881;36.722;-4.462;2023-04-12T09:32:01;100822.25;;;45.67;12.47
60725;BME280;59881;36.722;-4.462;2023-04-12T09:34:28;100783.53;;;45.53;12.04
60725;BME280;59881;36.722;-4.462;2023-04-12T09:36:54;100878.41;;;46.61;11.13
60725;BME280;59881;36.722;-4.462;2023-04-12T09:39:29;100881.66;;;47.30;11.77
60725;BME280;59881;36.722;-4.462;2023-04-12T09:42:09;100881.69;;;47.55;10.88
60725;BME280;59881;36.722;-4.462;2023-04-12T09:44:36;100893.44;;;47.73;11.18
60725;BME280;59881;36.722;-4.462;2023-04-12T09:47:02;100886.31;;;48.12;10.19
60725;BME280;59881;36.722;-4.462;2023-04-12T09:49:42;100751.81;;;47.57;10.37
60725;BME280;59881;36.722;-4.462;2023-04-12T09:52:12;100864.09;;;48.44;10.33
60725;BME280;59881;36.722;-4.462;2023-04-12T09:54:45;100866.59;;;48.89;10.25
60725;BME280;59881;36.722;-4.462;2023-04-12T09:57:16;100849.34;;;48.87;9.87
60725;BME280;59881;36.722;-4.462;2023-04-12T09:59:43;100886.81;;;48.99;10.11
60725;BME280;59881;36.722;-4.462;2023-04-12T10:02:13;100886.81;;;49.30;9.98
60725;BME280;59881;36.722;-4.462;2023-04-12T10:04:41;100737.78;;;48.66;9.84
60725;BME280;59881;36.722;-4.462;2023-04-12T10:07:07;100900.84;;;49.46;9.60
60725;BME280;59881;36.722;-4.462;2023-04-12T10:09:33;100793.78;;;49.18;9.64
60725;BME280;59881;36.722;-4.462;2023-04-12T10:12:01;100873.94;;;50.28;9.55
60725;BME280;59881;36.722;-4.462;2023-04-12T10:14:28;100867.53;;;50.67;8.84
60725;BME280;59881;36.722;-4.462;2023-04-12T10:16:59;100867.00;;;50.81;8.91
60725;BME280;59881;36.722;-4.462;2023-04-12T10:19:26;100790.34;;;50.11;9.15
60725;BME280;59881;36.722;-4.462;2023-04-12T10:21:56;100864.56;;;51.25;8.54
60725;BME280;59881;36.722;-4.462;2023-04-12T10:24:23;100808.06;;;51.04;8.51
60725;BME280;59881;36.722;-4.462;2023-04-12T10:26:50;100860.81;;;51.41;8.47
60725;BME280;59881;36.722;-4.462;2023-04-12T10:29:28;100839.66;;;51.73;8.17
60725;BME280;59881;36.722;-4.462;2023-04-12T10:31:57;100855.41;;;52.08;7.65
60725;BME280;59881;36.722;-4.462;2023-04-12T10:34:26;100653.44;;;50.79;7.71
60725;BME280;59881;36.722;-4.462;2023-04-12T10:36:53;100848.94;;;51.24;8.67
60725;BME280;59881;36.722;-4.462;2023-04-12T10:39:40;100851.09;;;50.07;8.56
60725;BME280;59881;36.722;-4.462;2023-04-12T10:42:28;100841.63;;;49.13;9.41
60725;BME280;59881;36.722;-4.462;2023-04-12T10:44:55;100841.13;;;47.70;9.94
60725;BME280;59881;36.722;-4.462;2023-04-12T10:50:27;100849.22;;;38.27;15.97
60725;BME280;59881;36.722;-4.462;2023-04-12T10:55:38;100843.22;;;33.45;21.01
60725;BME280;59881;36.722;-4.462;2023-04-12T10:58:04;100773.81;;;31.99;21.74
60725;BME280;59881;36.722;-4.462;2023-04-12T11:03:20;100865.38;;;31.29;23.30
60725;BME280;59881;36.722;-4.462;2023-04-12T11:06:04;100837.16;;;30.88;23.91
60725;BME280;59881;36.722;-4.462;2023-04-12T11:08:37;100841.53;;;30.59;23.26
60725;BME280;59881;36.722;-4.462;2023-04-12T11:11:19;100817.81;;;30.17;23.75
60725;BME280;59881;36.722;-4.462;2023-04-12T11:13:46;100824.47;;;30.03;23.70
60725;BME280;59881;36.722;-4.462;2023-04-12T11:16:12;100686.03;;;28.85;23.13
60725;BME280;59881;36.722;-4.462;2023-04-12T11:18:38;100777.75;;;29.20;22.69
60725;BME280;59881;36.722;-4.462;2023-04-12T11:21:04;100819.06;;;29.41;24.41
60725;BME280;59881;36.722;-4.462;2023-04-12T11:23:30;100742.88;;;28.67;23.75
60725;BME280;59881;36.722;-4.462;2023-04-12T11:25:56;100657.97;;;28.23;23.17
60725;BME280;59881;36.722;-4.462;2023-04-12T11:28:22;100646.16;;;28.11;23.14
60725;BME280;59881;36.722;-4.462;2023-04-12T11:30:57;100817.03;;;29.11;23.63
60725;BME280;59881;36.722;-4.462;2023-04-12T11:33:36;100654.06;;;28.12;23.25
60725;BME280;59881;36.722;-4.462;2023-04-12T11:36:06;100750.13;;;28.73;23.35
60725;BME280;59881;36.722;-4.462;2023-04-12T11:38:34;100795.25;;;28.93;23.33
60725;BME280;59881;36.722;-4.462;2023-04-12T11:41:01;100755.72;;;28.46;23.56
60725;BME280;59881;36.722;-4.462;2023-04-12T11:43:27;100744.09;;;28.39;23.51
60725;BME280;59881;36.722;-4.462;2023-04-12T11:45:57;100643.53;;;27.59;24.01
60725;BME280;59881;36.722;-4.462;2023-04-12T11:48:27;100500.28;;;26.80;24.31
60725;BME280;59881;36.722;-4.462;2023-04-12T11:50:52;100539.31;;;26.98;24.12
60725;BME280;59881;36.722;-4.462;2023-04-12T11:53:18;100727.38;;;28.17;24.01
60725;BME280;59881;36.722;-4.462;2023-04-12T11:55:48;100730.72;;;28.13;23.81
60725;BME280;59881;36.722;-4.462;2023-04-12T11:58:16;100784.09;;;28.51;24.04
60725;BME280;59881;36.722;-4.462;2023-04-12T12:00:45;100653.00;;;27.75;23.65
60725;BME280;59881;36.722;-4.462;2023-04-12T12:03:10;100675.50;;;27.75;23.38
60725;BME280;59881;36.722;-4.462;2023-04-12T12:05:38;100766.19;;;28.43;23.36
60725;BME280;59881;36.722;-4.462;2023-04-12T12:08:06;100745.22;;;28.25;23.25
60725;BME280;59881;36.722;-4.462;2023-04-12T12:10:36;100713.56;;;27.87;22.97
60725;BME280;59881;36.722;-4.462;2023-04-12T12:13:02;100675.13;;;27.58;23.22
60725;BME280;59881;36.722;-4.462;2023-04-12T12:15:32;100676.19;;;27.57;23.62
60725;BME280;59881;36.722;-4.462;2023-04-12T12:17:57;100752.22;;;28.08;23.76
60725;BME280;59881;36.722;-4.462;2023-04-12T12:20:26;100709.84;;;27.75;24.03
60725;BME280;59881;36.722;-4.462;2023-04-12T12:22:51;100569.91;;;26.85;23.73
60725;BME280;59881;36.722;-4.462;2023-04-12T12:25:17;100765.38;;;27.97;23.83
60725;BME280;59881;36.722;-4.462;2023-04-12T12:27:43;100697.06;;;27.43;23.56
60725;BME280;59881;36.722;-4.462;2023-04-12T12:30:16;100745.63;;;27.90;23.66
60725;BME280;59881;36.722;-4.462;2023-04-12T12:32:42;100746.44;;;27.97;23.90
60725;BME280;59881;36.722;-4.462;2023-04-12T12:35:10;100698.44;;;27.66;23.47
60725;BME280;59881;36.722;-4.462;2023-04-12T12:37:37;100739.53;;;28.01;23.47
60725;BME280;59881;36.722;-4.462;2023-04-12T12:42:35;100765.81;;;27.94;22.92
60725;BME280;59881;36.722;-4.462;2023-04-12T12:45:02;100736.88;;;27.95;22.46
60725;BME280;59881;36.722;-4.462;2023-04-12T12:47:29;100727.06;;;27.94;22.58
60725;BME280;59881;36.722;-4.462;2023-04-12T12:49:56;100732.50;;;27.87;22.35
60725;BME280;59881;36.722;-4.462;2023-04-12T12:52:22;100743.59;;;27.72;22.27
60725;BME280;59881;36.722;-4.462;2023-04-12T12:54:48;100729.06;;;27.60;21.81
60725;BME280;59881;36.722;-4.462;2023-04-12T12:57:13;100490.03;;;26.17;22.71
60725;BME280;59881;36.722;-4.462;2023-04-12T12:59:39;100690.78;;;27.50;22.34
60725;BME280;59881;36.722;-4.462;2023-04-12T13:02:05;100440.41;;;25.98;22.19
60725;BME280;59881;36.722;-4.462;2023-04-12T13:04:31;100459.09;;;25.93;22.20